sensor_id;sensor_type;location;lat;lon;timestamp;P1;durP1;ratioP1;P2;durP2;ratioP2
15635;SDS011;7917;50.818;6.972;2023-12-04T00:01:44;18.92;;;10.57;;
15635;SDS011;7917;50.818;6.972;2023-12-04T00:04:11;21.58;;;11.50;;
15635;SDS011;7917;50.818;6.972;2023-12-04T00:06:40;17.75;;;11.00;;
15635;SDS011;7917;50.818;6.972;2023-12-04T00:09:10;20.98;;;10.55;;
15635;SDS011;7917;50.818;6.972;2023-12-04T00:11:41;18.83;;;11.25;;
15635;SDS011;7917;50.818;6.972;2023-12-04T00:14:11;20.67;;;11.45;;
15635;SDS011;7917;50.818;6.972;2023-12-04T00:16:38;18.65;;;9.80;;
15635;SDS011;7917;50.818;6.972;2023-12-04T00:19:04;18.90;;;12.18;;
15635;SDS011;7917;50.818;6.972;2023-12-04T00:21:32;18.40;;;11.48;;
15635;SDS011;7917;50.818;6.972;2023-12-04T00:23:59;19.38;;;11.32;;
15635;SDS011;7917;50.818;6.972;2023-12-04T00:26:26;18.33;;;11.35;;
15635;SDS011;7917;50.818;6.972;2023-12-04T00:28:53;17.70;;;10.10;;
15635;SDS011;7917;50.818;6.972;2023-12-04T00:31:20;19.00;;;11.10;;
15635;SDS011;7917;50.818;6.972;2023-12-04T00:33:47;17.67;;;11.27;;
15635;SDS011;7917;50.818;6.972;2023-12-04T00:36:16;17.92;;;10.55;;
15635;SDS011;7917;50.818;6.972;2023-12-04T00:38:45;20.55;;;11.38;;
15635;SDS011;7917;50.818;6.972;2023-12-04T00:41:12;20.58;;;11.25;;
15635;SDS011;7917;50.818;6.972;2023-12-04T00:43:38;21.40;;;11.30;;
15635;SDS011;7917;50.818;6.972;2023-12-04T00:46:06;18.85;;;11.93;;
15635;SDS011;7917;50.818;6.972;2023-12-04T00:48:33;20.67;;;12.60;;
15635;SDS011;7917;50.818;6.972;2023-12-04T00:50:59;23.23;;;13.23;;
15635;SDS011;7917;50.818;6.972;2023-12-04T00:53:26;18.42;;;11.38;;
15635;SDS011;7917;50.818;6.972;2023-12-04T00:55:52;21.67;;;12.98;;
15635;SDS011;7917;50.818;6.972;2023-12-04T00:58:19;20.40;;;11.82;;
15635;SDS011;7917;50.818;6.972;2023-12-04T01:00:46;19.63;;;11.32;;
15635;SDS011;7917;50.818;6.972;2023-12-04T01:03:14;19.15;;;10.68;;
15635;SDS011;7917;50.818;6.972;2023-12-04T01:05:41;20.33;;;11.15;;
15635;SDS011;7917;50.818;6.972;2023-12-04T01:08:08;20.65;;;11.15;;
15635;SDS011;7917;50.818;6.972;2023-12-04T01:10:35;17.77;;;10.57;;
15635;SDS011;7917;50.818;6.972;2023-12-04T01:13:02;21.35;;;11.65;;
15635;SDS011;7917;50.818;6.972;2023-12-04T01:15:28;19.13;;;11.23;;
15635;SDS011;7917;50.818;6.972;2023-12-04T01:17:55;21.30;;;10.65;;
15635;SDS011;7917;50.818;6.972;2023-12-04T01:20:23;22.38;;;11.73;;
15635;SDS011;7917;50.818;6.972;2023-12-04T01:22:50;21.27;;;10.90;;
15635;SDS011;7917;50.818;6.972;2023-12-04T01:25:19;19.80;;;11.55;;
15635;SDS011;7917;50.818;6.972;2023-12-04T01:27:46;21.10;;;12.13;;
15635;SDS011;7917;50.818;6.972;2023-12-04T01:30:13;17.38;;;11.15;;
15635;SDS011;7917;50.818;6.972;2023-12-04T01:32:40;17.40;;;10.70;;
15635;SDS011;7917;50.818;6.972;2023-12-04T01:35:06;22.60;;;12.52;;
15635;SDS011;7917;50.818;6.972;2023-12-04T01:37:34;20.38;;;11.10;;
15635;SDS011;7917;50.818;6.972;2023-12-04T01:40:02;17.20;;;10.93;;
15635;SDS011;7917;50.818;6.972;2023-12-04T01:42:31;20.38;;;12.50;;
15635;SDS011;7917;50.818;6.972;2023-12-04T01:44:58;19.00;;;11.57;;
15635;SDS011;7917;50.818;6.972;2023-12-04T01:47:25;17.98;;;10.93;;
15635;SDS011;7917;50.818;6.972;2023-12-04T01:49:51;17.80;;;10.95;;
15635;SDS011;7917;50.818;6.972;2023-12-04T01:52:18;19.05;;;11.35;;
15635;SDS011;7917;50.818;6.972;2023-12-04T01:54:45;17.83;;;10.63;;
15635;SDS011;7917;50.818;6.972;2023-12-04T01:57:12;18.60;;;10.45;;
15635;SDS011;7917;50.818;6.972;2023-12-04T01:59:38;18.00;;;10.40;;
15635;SDS011;7917;50.818;6.972;2023-12-04T02:02:05;18.13;;;10.65;;
15635;SDS011;7917;50.818;6.972;2023-12-04T02:04:31;18.88;;;10.45;;
15635;SDS011;7917;50.818;6.972;2023-12-04T02:06:58;18.15;;;10.07;;
15635;SDS011;7917;50.818;6.972;2023-12-04T02:09:26;20.67;;;10.60;;
15635;SDS011;7917;50.818;6.972;2023-12-04T02:11:56;15.88;;;9.85;;
15635;SDS011;7917;50.818;6.972;2023-12-04T02:14:24;18.55;;;10.90;;
15635;SDS011;7917;50.818;6.972;2023-12-04T02:16:54;19.23;;;12.18;;
15635;SDS011;7917;50.818;6.972;2023-12-04T02:19:21;18.77;;;11.10;;
15635;SDS011;7917;50.818;6.972;2023-12-04T02:21:48;18.40;;;10.68;;
15635;SDS011;7917;50.818;6.972;2023-12-04T02:24:15;17.85;;;11.52;;
15635;SDS011;7917;50.818;6.972;2023-12-04T02:26:44;17.30;;;9.82;;
15635;SDS011;7917;50.818;6.972;2023-12-04T02:29:17;22.13;;;11.43;;
15635;SDS011;7917;50.818;6.972;2023-12-04T02:31:49;17.88;;;10.77;;
15635;SDS011;7917;50.818;6.972;2023-12-04T02:34:17;17.42;;;10.35;;
15635;SDS011;7917;50.818;6.972;2023-12-04T02:36:44;19.38;;;11.07;;
15635;SDS011;7917;50.818;6.972;2023-12-04T02:39:16;18.30;;;11.50;;
15635;SDS011;7917;50.818;6.972;2023-12-04T02:41:43;20.05;;;10.25;;
15635;SDS011;7917;50.818;6.972;2023-12-04T02:44:12;18.13;;;10.52;;
15635;SDS011;7917;50.818;6.972;2023-12-04T02:46:39;17.60;;;10.57;;
15635;SDS011;7917;50.818;6.972;2023-12-04T02:49:05;16.58;;;10.88;;
15635;SDS011;7917;50.818;6.972;2023-12-04T02:51:32;19.10;;;10.80;;
15635;SDS011;7917;50.818;6.972;2023-12-04T02:53:59;19.80;;;10.20;;
15635;SDS011;7917;50.818;6.972;2023-12-04T02:56:26;19.50;;;10.50;;
15635;SDS011;7917;50.818;6.972;2023-12-04T02:58:52;20.63;;;10.80;;
15635;SDS011;7917;50.818;6.972;2023-12-04T03:01:19;20.55;;;11.43;;
15635;SDS011;7917;50.818;6.972;2023-12-04T03:03:48;18.15;;;10.70;;
15635;SDS011;7917;50.818;6.972;2023-12-04T03:06:17;17.13;;;11.02;;
15635;SDS011;7917;50.818;6.972;2023-12-04T03:08:43;18.15;;;11.38;;
15635;SDS011;7917;50.818;6.972;2023-12-04T03:11:13;17.60;;;10.75;;
15635;SDS011;7917;50.818;6.972;2023-12-04T03:13:40;19.65;;;11.65;;
15635;SDS011;7917;50.818;6.972;2023-12-04T03:16:14;15.02;;;8.18;;
15635;SDS011;7917;50.818;6.972;2023-12-04T03:18:41;19.95;;;11.63;;
15635;SDS011;7917;50.818;6.972;2023-12-04T03:21:08;21.23;;;11.88;;
15635;SDS011;7917;50.818;6.972;2023-12-04T03:23:35;18.67;;;10.45;;
15635;SDS011;7917;50.818;6.972;2023-12-04T03:26:01;19.55;;;11.65;;
15635;SDS011;7917;50.818;6.972;2023-12-04T03:28:28;19.92;;;11.07;;
15635;SDS011;7917;50.818;6.972;2023-12-04T03:30:56;19.60;;;10.50;;
15635;SDS011;7917;50.818;6.972;2023-12-04T03:33:23;19.17;;;11.95;;
15635;SDS011;7917;50.818;6.972;2023-12-04T03:35:49;18.02;;;10.90;;
15635;SDS011;7917;50.818;6.972;2023-12-04T03:38:16;19.02;;;11.02;;
15635;SDS011;7917;50.818;6.972;2023-12-04T03:40:42;19.30;;;11.45;;
15635;SDS011;7917;50.818;6.972;2023-12-04T03:43:09;20.15;;;11.13;;
15635;SDS011;7917;50.818;6.972;2023-12-04T03:45:36;17.65;;;10.98;;
15635;SDS011;7917;50.818;6.972;2023-12-04T03:48:03;19.20;;;10.95;;
15635;SDS011;7917;50.818;6.972;2023-12-04T03:50:30;19.30;;;11.25;;
15635;SDS011;7917;50.818;6.972;2023-12-04T03:52:57;18.08;;;10.50;;
15635;SDS011;7917;50.818;6.972;2023-12-04T03:55:23;18.98;;;12.02;;
15635;SDS011;7917;50.818;6.972;2023-12-04T03:57:53;19.70;;;11.57;;
15635;SDS011;7917;50.818;6.972;2023-12-04T04:03:46;18.27;;;11.18;;
15635;SDS011;7917;50.818;6.972;2023-12-04T04:06:12;20.65;;;12.15;;
15635;SDS011;7917;50.818;6.972;2023-12-04T04:08:38;22.10;;;11.05;;
15635;SDS011;7917;50.818;6.972;2023-12-04T04:11:05;20.25;;;12.07;;
15635;SDS011;7917;50.818;6.972;2023-12-04T04:13:32;18.15;;;11.35;;
15635;SDS011;7917;50.818;6.972;2023-12-04T04:15:59;20.63;;;12.15;;
15635;SDS011;7917;50.818;6.972;2023-12-04T04:18:26;20.77;;;10.98;;
15635;SDS011;7917;50.818;6.972;2023-12-04T04:20:53;20.13;;;12.00;;
15635;SDS011;7917;50.818;6.972;2023-12-04T04:23:20;20.70;;;11.95;;
15635;SDS011;7917;50.818;6.972;2023-12-04T04:25:46;21.35;;;12.23;;
15635;SDS011;7917;50.818;6.972;2023-12-04T04:28:13;20.05;;;12.15;;
15635;SDS011;7917;50.818;6.972;2023-12-04T04:30:39;19.80;;;11.93;;
15635;SDS011;7917;50.818;6.972;2023-12-04T04:33:09;17.02;;;9.27;;
15635;SDS011;7917;50.818;6.972;2023-12-04T04:35:36;21.05;;;11.60;;
15635;SDS011;7917;50.818;6.972;2023-12-04T04:38:03;22.05;;;12.68;;
15635;SDS011;7917;50.818;6.972;2023-12-04T04:40:30;19.13;;;11.65;;
15635;SDS011;7917;50.818;6.972;2023-12-04T04:42:57;20.27;;;12.27;;
15635;SDS011;7917;50.818;6.972;2023-12-04T04:45:23;19.88;;;11.77;;
15635;SDS011;7917;50.818;6.972;2023-12-04T04:47:50;20.15;;;11.38;;
15635;SDS011;7917;50.818;6.972;2023-12-04T04:50:17;21.75;;;10.73;;
15635;SDS011;7917;50.818;6.972;2023-12-04T04:52:44;25.73;;;13.38;;
15635;SDS011;7917;50.818;6.972;2023-12-04T04:55:11;24.60;;;12.32;;
15635;SDS011;7917;50.818;6.972;2023-12-04T04:57:38;19.85;;;12.05;;
15635;SDS011;7917;50.818;6.972;2023-12-04T05:00:05;20.65;;;12.38;;
15635;SDS011;7917;50.818;6.972;2023-12-04T05:02:33;22.25;;;12.27;;
15635;SDS011;7917;50.818;6.972;2023-12-04T05:05:02;20.88;;;12.18;;
15635;SDS011;7917;50.818;6.972;2023-12-04T05:07:29;23.50;;;11.98;;
15635;SDS011;7917;50.818;6.972;2023-12-04T05:09:56;20.20;;;12.80;;
15635;SDS011;7917;50.818;6.972;2023-12-04T05:12:23;24.92;;;12.95;;
15635;SDS011;7917;50.818;6.972;2023-12-04T05:14:50;21.92;;;13.73;;
15635;SDS011;7917;50.818;6.972;2023-12-04T05:17:17;21.58;;;11.90;;
15635;SDS011;7917;50.818;6.972;2023-12-04T05:19:44;23.58;;;13.98;;
15635;SDS011;7917;50.818;6.972;2023-12-04T05:22:10;18.23;;;10.82;;
15635;SDS011;7917;50.818;6.972;2023-12-04T05:24:37;21.60;;;13.57;;
15635;SDS011;7917;50.818;6.972;2023-12-04T05:27:04;21.20;;;12.15;;
15635;SDS011;7917;50.818;6.972;2023-12-04T05:29:31;22.08;;;11.85;;
15635;SDS011;7917;50.818;6.972;2023-12-04T05:31:58;23.70;;;12.88;;
15635;SDS011;7917;50.818;6.972;2023-12-04T05:34:25;25.52;;;14.65;;
15635;SDS011;7917;50.818;6.972;2023-12-04T05:36:51;22.38;;;13.07;;
15635;SDS011;7917;50.818;6.972;2023-12-04T05:39:17;23.02;;;13.82;;
15635;SDS011;7917;50.818;6.972;2023-12-04T05:41:44;25.60;;;14.73;;
15635;SDS011;7917;50.818;6.972;2023-12-04T05:44:10;21.70;;;13.05;;
15635;SDS011;7917;50.818;6.972;2023-12-04T05:46:38;25.75;;;14.10;;
15635;SDS011;7917;50.818;6.972;2023-12-04T05:49:05;17.50;;;9.90;;
15635;SDS011;7917;50.818;6.972;2023-12-04T05:51:31;24.23;;;14.18;;
15635;SDS011;7917;50.818;6.972;2023-12-04T05:53:58;24.13;;;14.27;;
15635;SDS011;7917;50.818;6.972;2023-12-04T05:56:25;27.25;;;14.77;;
15635;SDS011;7917;50.818;6.972;2023-12-04T05:58:51;23.98;;;14.23;;
15635;SDS011;7917;50.818;6.972;2023-12-04T06:01:18;25.58;;;13.77;;
15635;SDS011;7917;50.818;6.972;2023-12-04T06:03:45;24.70;;;13.15;;
15635;SDS011;7917;50.818;6.972;2023-12-04T06:06:12;25.92;;;13.02;;
15635;SDS011;7917;50.818;6.972;2023-12-04T06:08:42;20.73;;;12.63;;
15635;SDS011;7917;50.818;6.972;2023-12-04T06:21:15;22.70;;;13.07;;
15635;SDS011;7917;50.818;6.972;2023-12-04T06:23:43;26.75;;;14.07;;
15635;SDS011;7917;50.818;6.972;2023-12-04T06:26:11;21.73;;;13.43;;
15635;SDS011;7917;50.818;6.972;2023-12-04T06:28:39;20.52;;;11.20;;
15635;SDS011;7917;50.818;6.972;2023-12-04T06:31:07;22.15;;;13.88;;
15635;SDS011;7917;50.818;6.972;2023-12-04T06:33:35;19.73;;;11.80;;
15635;SDS011;7917;50.818;6.972;2023-12-04T06:36:03;22.13;;;14.10;;
15635;SDS011;7917;50.818;6.972;2023-12-04T06:38:32;21.67;;;13.23;;
15635;SDS011;7917;50.818;6.972;2023-12-04T06:41:05;17.40;;;10.02;;
15635;SDS011;7917;50.818;6.972;2023-12-04T06:43:33;20.38;;;13.68;;
15635;SDS011;7917;50.818;6.972;2023-12-04T06:46:01;23.20;;;12.10;;
15635;SDS011;7917;50.818;6.972;2023-12-04T06:48:28;18.67;;;10.85;;
15635;SDS011;7917;50.818;6.972;2023-12-04T06:50:55;21.70;;;12.20;;
15635;SDS011;7917;50.818;6.972;2023-12-04T06:53:22;24.27;;;13.45;;
15635;SDS011;7917;50.818;6.972;2023-12-04T06:55:49;20.33;;;12.02;;
15635;SDS011;7917;50.818;6.972;2023-12-04T06:58:17;21.15;;;13.02;;
15635;SDS011;7917;50.818;6.972;2023-12-04T07:00:43;23.02;;;13.23;;
15635;SDS011;7917;50.818;6.972;2023-12-04T07:03:11;20.40;;;11.70;;
15635;SDS011;7917;50.818;6.972;2023-12-04T07:05:37;23.65;;;13.23;;
15635;SDS011;7917;50.818;6.972;2023-12-04T07:08:08;22.30;;;13.23;;
15635;SDS011;7917;50.818;6.972;2023-12-04T07:10:35;22.90;;;13.43;;
15635;SDS011;7917;50.818;6.972;2023-12-04T07:19:47;21.70;;;13.27;;
15635;SDS011;7917;50.818;6.972;2023-12-04T07:22:14;23.73;;;13.05;;
15635;SDS011;7917;50.818;6.972;2023-12-04T07:24:40;20.75;;;12.95;;
15635;SDS011;7917;50.818;6.972;2023-12-04T07:27:07;21.85;;;13.55;;
15635;SDS011;7917;50.818;6.972;2023-12-04T07:29:34;19.40;;;12.38;;
15635;SDS011;7917;50.818;6.972;2023-12-04T07:32:03;18.83;;;11.85;;
15635;SDS011;7917;50.818;6.972;2023-12-04T07:34:30;20.67;;;12.65;;
15635;SDS011;7917;50.818;6.972;2023-12-04T07:36:57;23.98;;;13.32;;
15635;SDS011;7917;50.818;6.972;2023-12-04T07:39:25;23.15;;;12.07;;
15635;SDS011;7917;50.818;6.972;2023-12-04T07:41:52;19.00;;;11.32;;
15635;SDS011;7917;50.818;6.972;2023-12-04T07:44:18;20.02;;;12.13;;
15635;SDS011;7917;50.818;6.972;2023-12-04T07:46:45;19.88;;;10.68;;
15635;SDS011;7917;50.818;6.972;2023-12-04T07:49:12;20.48;;;11.93;;
15635;SDS011;7917;50.818;6.972;2023-12-04T07:51:39;17.65;;;11.18;;
15635;SDS011;7917;50.818;6.972;2023-12-04T07:54:07;20.88;;;12.15;;
15635;SDS011;7917;50.818;6.972;2023-12-04T07:56:33;21.92;;;12.63;;
15635;SDS011;7917;50.818;6.972;2023-12-04T07:59:03;18.60;;;11.98;;
15635;SDS011;7917;50.818;6.972;2023-12-04T08:01:30;20.38;;;12.90;;
15635;SDS011;7917;50.818;6.972;2023-12-04T08:07:19;19.05;;;10.75;;
15635;SDS011;7917;50.818;6.972;2023-12-04T08:09:47;21.13;;;12.40;;
15635;SDS011;7917;50.818;6.972;2023-12-04T08:12:14;21.25;;;12.75;;
15635;SDS011;7917;50.818;6.972;2023-12-04T08:14:41;19.98;;;11.90;;
15635;SDS011;7917;50.818;6.972;2023-12-04T08:17:08;22.88;;;12.57;;
15635;SDS011;7917;50.818;6.972;2023-12-04T08:19:35;23.15;;;12.95;;
15635;SDS011;7917;50.818;6.972;2023-12-04T08:22:03;20.20;;;10.75;;
15635;SDS011;7917;50.818;6.972;2023-12-04T08:24:30;19.20;;;11.18;;
15635;SDS011;7917;50.818;6.972;2023-12-04T08:26:57;17.45;;;11.45;;
15635;SDS011;7917;50.818;6.972;2023-12-04T08:29:24;21.50;;;12.50;;
15635;SDS011;7917;50.818;6.972;2023-12-04T08:31:51;20.60;;;12.07;;
15635;SDS011;7917;50.818;6.972;2023-12-04T08:34:18;20.00;;;11.73;;
15635;SDS011;7917;50.818;6.972;2023-12-04T08:36:44;21.00;;;12.65;;
15635;SDS011;7917;50.818;6.972;2023-12-04T08:39:11;18.40;;;10.55;;
15635;SDS011;7917;50.818;6.972;2023-12-04T08:41:38;19.85;;;11.85;;
15635;SDS011;7917;50.818;6.972;2023-12-04T08:44:05;18.77;;;11.68;;
15635;SDS011;7917;50.818;6.972;2023-12-04T08:46:32;17.90;;;11.00;;
15635;SDS011;7917;50.818;6.972;2023-12-04T08:48:59;13.00;;;8.13;;
15635;SDS011;7917;50.818;6.972;2023-12-04T08:51:25;19.73;;;11.63;;
15635;SDS011;7917;50.818;6.972;2023-12-04T08:53:52;21.30;;;11.82;;
15635;SDS011;7917;50.818;6.972;2023-12-04T08:56:19;17.52;;;10.27;;
15635;SDS011;7917;50.818;6.972;2023-12-04T08:58:45;17.58;;;11.60;;
15635;SDS011;7917;50.818;6.972;2023-12-04T09:01:13;18.88;;;10.40;;
15635;SDS011;7917;50.818;6.972;2023-12-04T09:03:40;18.23;;;10.77;;
15635;SDS011;7917;50.818;6.972;2023-12-04T09:06:07;19.10;;;11.20;;
15635;SDS011;7917;50.818;6.972;2023-12-04T09:08:36;17.60;;;10.93;;
15635;SDS011;7917;50.818;6.972;2023-12-04T09:11:03;17.52;;;10.43;;
15635;SDS011;7917;50.818;6.972;2023-12-04T09:13:30;16.92;;;11.20;;
15635;SDS011;7917;50.818;6.972;2023-12-04T09:15:58;19.00;;;10.73;;
15635;SDS011;7917;50.818;6.972;2023-12-04T09:18:25;18.35;;;11.50;;
15635;SDS011;7917;50.818;6.972;2023-12-04T09:20:51;15.77;;;10.02;;
15635;SDS011;7917;50.818;6.972;2023-12-04T09:23:19;17.70;;;10.55;;
15635;SDS011;7917;50.818;6.972;2023-12-04T09:25:46;18.00;;;10.90;;
15635;SDS011;7917;50.818;6.972;2023-12-04T09:28:13;18.63;;;11.40;;
15635;SDS011;7917;50.818;6.972;2023-12-04T09:30:40;16.85;;;10.65;;
15635;SDS011;7917;50.818;6.972;2023-12-04T09:33:07;16.05;;;10.20;;
15635;SDS011;7917;50.818;6.972;2023-12-04T09:35:34;16.08;;;9.93;;
15635;SDS011;7917;50.818;6.972;2023-12-04T09:38:01;19.00;;;10.63;;
15635;SDS011;7917;50.818;6.972;2023-12-04T09:40:28;14.98;;;8.48;;
15635;SDS011;7917;50.818;6.972;2023-12-04T09:42:55;15.82;;;10.23;;
15635;SDS011;7917;50.818;6.972;2023-12-04T09:45:23;14.13;;;9.23;;
15635;SDS011;7917;50.818;6.972;2023-12-04T09:47:50;14.23;;;8.82;;
15635;SDS011;7917;50.818;6.972;2023-12-04T09:50:17;11.32;;;6.95;;
15635;SDS011;7917;50.818;6.972;2023-12-04T09:52:47;18.63;;;9.93;;
15635;SDS011;7917;50.818;6.972;2023-12-04T09:55:15;14.65;;;10.18;;
15635;SDS011;7917;50.818;6.972;2023-12-04T09:57:42;17.90;;;9.65;;
15635;SDS011;7917;50.818;6.972;2023-12-04T10:00:11;14.60;;;8.50;;
15635;SDS011;7917;50.818;6.972;2023-12-04T10:02:39;11.73;;;6.90;;
15635;SDS011;7917;50.818;6.972;2023-12-04T10:05:07;13.95;;;7.72;;
15635;SDS011;7917;50.818;6.972;2023-12-04T10:07:34;17.35;;;10.95;;
15635;SDS011;7917;50.818;6.972;2023-12-04T10:10:02;14.55;;;9.10;;
15635;SDS011;7917;50.818;6.972;2023-12-04T10:12:31;16.13;;;8.18;;
15635;SDS011;7917;50.818;6.972;2023-12-04T10:15:05;16.20;;;10.40;;
15635;SDS011;7917;50.818;6.972;2023-12-04T10:17:33;14.00;;;9.57;;
15635;SDS011;7917;50.818;6.972;2023-12-04T10:20:04;14.13;;;9.70;;
15635;SDS011;7917;50.818;6.972;2023-12-04T10:22:36;18.50;;;10.73;;
15635;SDS011;7917;50.818;6.972;2023-12-04T10:25:14;16.60;;;10.50;;
15635;SDS011;7917;50.818;6.972;2023-12-04T10:27:41;18.13;;;10.15;;
15635;SDS011;7917;50.818;6.972;2023-12-04T10:30:09;18.50;;;10.48;;
15635;SDS011;7917;50.818;6.972;2023-12-04T10:32:47;17.05;;;9.90;;
15635;SDS011;7917;50.818;6.972;2023-12-04T10:35:14;16.27;;;9.55;;
15635;SDS011;7917;50.818;6.972;2023-12-04T10:37:42;15.60;;;10.13;;
15635;SDS011;7917;50.818;6.972;2023-12-04T10:40:09;19.70;;;10.63;;
15635;SDS011;7917;50.818;6.972;2023-12-04T10:42:36;15.73;;;9.50;;
15635;SDS011;7917;50.818;6.972;2023-12-04T10:45:03;14.80;;;9.63;;
15635;SDS011;7917;50.818;6.972;2023-12-04T10:47:31;17.52;;;9.52;;
15635;SDS011;7917;50.818;6.972;2023-12-04T10:50:00;19.85;;;13.05;;
15635;SDS011;7917;50.818;6.972;2023-12-04T10:52:28;16.90;;;10.63;;
15635;SDS011;7917;50.818;6.972;2023-12-04T10:54:56;14.68;;;10.02;;
15635;SDS011;7917;50.818;6.972;2023-12-04T10:57:25;15.85;;;10.25;;
15635;SDS011;7917;50.818;6.972;2023-12-04T10:59:55;16.35;;;10.07;;
15635;SDS011;7917;50.818;6.972;2023-12-04T11:02:25;22.00;;;11.25;;
15635;SDS011;7917;50.818;6.972;2023-12-04T11:04:54;16.45;;;9.90;;
15635;SDS011;7917;50.818;6.972;2023-12-04T11:07:24;13.30;;;8.93;;
15635;SDS011;7917;50.818;6.972;2023-12-04T11:09:53;13.93;;;9.38;;
15635;SDS011;7917;50.818;6.972;2023-12-04T11:12:21;16.92;;;9.80;;
15635;SDS011;7917;50.818;6.972;2023-12-04T11:14:53;18.17;;;11.27;;
15635;SDS011;7917;50.818;6.972;2023-12-04T11:17:27;17.98;;;10.60;;
15635;SDS011;7917;50.818;6.972;2023-12-04T11:20:02;18.85;;;11.88;;
15635;SDS011;7917;50.818;6.972;2023-12-04T11:22:34;16.58;;;11.35;;
15635;SDS011;7917;50.818;6.972;2023-12-04T11:25:05;16.75;;;11.02;;
15635;SDS011;7917;50.818;6.972;2023-12-04T11:27:33;15.90;;;9.23;;
15635;SDS011;7917;50.818;6.972;2023-12-04T11:30:05;16.35;;;8.77;;
15635;SDS011;7917;50.818;6.972;2023-12-04T11:32:43;19.13;;;11.13;;
15635;SDS011;7917;50.818;6.972;2023-12-04T11:35:12;19.13;;;10.18;;
15635;SDS011;7917;50.818;6.972;2023-12-04T11:37:40;15.75;;;9.90;;
15635;SDS011;7917;50.818;6.972;2023-12-04T11:40:10;22.80;;;11.88;;
15635;SDS011;7917;50.818;6.972;2023-12-04T11:42:38;20.40;;;11.23;;
15635;SDS011;7917;50.818;6.972;2023-12-04T11:45:07;17.00;;;10.07;;
15635;SDS011;7917;50.818;6.972;2023-12-04T11:47:50;17.98;;;10.45;;
15635;SDS011;7917;50.818;6.972;2023-12-04T11:50:18;16.08;;;10.10;;
15635;SDS011;7917;50.818;6.972;2023-12-04T11:52:46;18.48;;;11.45;;
15635;SDS011;7917;50.818;6.972;2023-12-04T11:55:16;17.45;;;10.60;;
15635;SDS011;7917;50.818;6.972;2023-12-04T11:57:45;20.13;;;11.45;;
15635;SDS011;7917;50.818;6.972;2023-12-04T12:00:18;18.17;;;10.52;;
15635;SDS011;7917;50.818;6.972;2023-12-04T12:02:48;17.48;;;11.20;;
15635;SDS011;7917;50.818;6.972;2023-12-04T12:05:27;14.90;;;9.70;;
15635;SDS011;7917;50.818;6.972;2023-12-04T12:07:57;16.77;;;9.77;;
15635;SDS011;7917;50.818;6.972;2023-12-04T12:10:26;16.60;;;10.38;;
15635;SDS011;7917;50.818;6.972;2023-12-04T12:12:54;15.07;;;9.15;;
15635;SDS011;7917;50.818;6.972;2023-12-04T12:15:22;11.75;;;7.97;;
15635;SDS011;7917;50.818;6.972;2023-12-04T12:17:50;17.33;;;10.40;;
15635;SDS011;7917;50.818;6.972;2023-12-04T12:20:17;14.43;;;8.20;;
15635;SDS011;7917;50.818;6.972;2023-12-04T12:22:46;14.52;;;9.10;;
15635;SDS011;7917;50.818;6.972;2023-12-04T12:25:14;19.45;;;10.68;;
15635;SDS011;7917;50.818;6.972;2023-12-04T12:27:42;15.35;;;9.52;;
15635;SDS011;7917;50.818;6.972;2023-12-04T12:30:12;16.00;;;10.00;;
15635;SDS011;7917;50.818;6.972;2023-12-04T12:32:40;16.02;;;10.40;;
15635;SDS011;7917;50.818;6.972;2023-12-04T12:35:07;18.52;;;10.73;;
15635;SDS011;7917;50.818;6.972;2023-12-04T12:37:34;13.07;;;8.25;;
15635;SDS011;7917;50.818;6.972;2023-12-04T12:40:03;14.45;;;9.45;;
15635;SDS011;7917;50.818;6.972;2023-12-04T12:42:31;14.57;;;8.77;;
15635;SDS011;7917;50.818;6.972;2023-12-04T12:44:59;15.63;;;9.30;;
15635;SDS011;7917;50.818;6.972;2023-12-04T12:47:29;15.73;;;10.25;;
15635;SDS011;7917;50.818;6.972;2023-12-04T12:49:57;16.35;;;10.10;;
15635;SDS011;7917;50.818;6.972;2023-12-04T12:52:26;14.73;;;9.68;;
15635;SDS011;7917;50.818;6.972;2023-12-04T12:54:53;12.80;;;9.10;;
15635;SDS011;7917;50.818;6.972;2023-12-04T12:57:21;14.95;;;8.85;;
15635;SDS011;7917;50.818;6.972;2023-12-04T12:59:49;14.82;;;9.45;;
15635;SDS011;7917;50.818;6.972;2023-12-04T13:02:19;16.25;;;9.40;;
15635;SDS011;7917;50.818;6.972;2023-12-04T13:04:47;14.13;;;9.10;;
15635;SDS011;7917;50.818;6.972;2023-12-04T13:07:17;14.80;;;9.07;;
15635;SDS011;7917;50.818;6.972;2023-12-04T13:09:44;14.32;;;8.95;;
15635;SDS011;7917;50.818;6.972;2023-12-04T13:12:12;14.05;;;9.15;;
15635;SDS011;7917;50.818;6.972;2023-12-04T13:14:40;13.63;;;8.50;;
15635;SDS011;7917;50.818;6.972;2023-12-04T13:17:07;14.70;;;9.45;;
15635;SDS011;7917;50.818;6.972;2023-12-04T13:19:34;15.93;;;9.60;;
15635;SDS011;7917;50.818;6.972;2023-12-04T13:22:01;17.08;;;8.65;;
15635;SDS011;7917;50.818;6.972;2023-12-04T13:24:30;15.88;;;9.80;;
15635;SDS011;7917;50.818;6.972;2023-12-04T13:26:57;13.45;;;8.55;;
15635;SDS011;7917;50.818;6.972;2023-12-04T13:29:24;12.52;;;8.50;;
15635;SDS011;7917;50.818;6.972;2023-12-04T13:31:50;11.55;;;7.65;;
15635;SDS011;7917;50.818;6.972;2023-12-04T13:34:18;11.20;;;6.35;;
15635;SDS011;7917;50.818;6.972;2023-12-04T13:36:45;13.27;;;8.63;;
15635;SDS011;7917;50.818;6.972;2023-12-04T13:39:12;11.90;;;8.07;;
15635;SDS011;7917;50.818;6.972;2023-12-04T13:41:43;13.60;;;8.65;;
15635;SDS011;7917;50.818;6.972;2023-12-04T13:44:29;14.15;;;8.57;;
15635;SDS011;7917;50.818;6.972;2023-12-04T13:46:56;16.58;;;8.48;;
15635;SDS011;7917;50.818;6.972;2023-12-04T13:49:23;16.23;;;8.02;;
15635;SDS011;7917;50.818;6.972;2023-12-04T13:51:50;11.70;;;7.05;;
15635;SDS011;7917;50.818;6.972;2023-12-04T13:54:18;10.15;;;7.50;;
15635;SDS011;7917;50.818;6.972;2023-12-04T13:56:47;10.15;;;7.28;;
15635;SDS011;7917;50.818;6.972;2023-12-04T13:59:29;11.77;;;8.07;;
15635;SDS011;7917;50.818;6.972;2023-12-04T14:41:38;12.48;;;8.15;;
15635;SDS011;7917;50.818;6.972;2023-12-04T14:44:05;11.88;;;7.65;;
15635;SDS011;7917;50.818;6.972;2023-12-04T14:46:40;13.73;;;7.50;;
15635;SDS011;7917;50.818;6.972;2023-12-04T14:49:07;11.80;;;8.15;;
15635;SDS011;7917;50.818;6.972;2023-12-04T14:51:33;11.55;;;8.13;;
15635;SDS011;7917;50.818;6.972;2023-12-04T14:54:01;11.88;;;8.10;;
15635;SDS011;7917;50.818;6.972;2023-12-04T14:56:41;9.35;;;6.85;;
15635;SDS011;7917;50.818;6.972;2023-12-04T14:59:25;11.13;;;5.53;;
15635;SDS011;7917;50.818;6.972;2023-12-04T15:02:07;10.55;;;7.25;;
15635;SDS011;7917;50.818;6.972;2023-12-04T15:04:54;7.00;;;4.72;;
15635;SDS011;7917;50.818;6.972;2023-12-04T15:07:50;12.18;;;7.47;;
15635;SDS011;7917;50.818;6.972;2023-12-04T15:10:50;10.90;;;7.60;;
15635;SDS011;7917;50.818;6.972;2023-12-04T15:13:50;11.35;;;8.00;;
15635;SDS011;7917;50.818;6.972;2023-12-04T15:16:26;13.10;;;8.50;;
15635;SDS011;7917;50.818;6.972;2023-12-04T15:18:59;11.68;;;8.10;;
15635;SDS011;7917;50.818;6.972;2023-12-04T15:21:51;11.45;;;7.20;;
15635;SDS011;7917;50.818;6.972;2023-12-04T15:24:18;11.10;;;8.27;;
15635;SDS011;7917;50.818;6.972;2023-12-04T15:26:45;11.52;;;8.07;;
15635;SDS011;7917;50.818;6.972;2023-12-04T15:29:13;11.15;;;8.10;;
15635;SDS011;7917;50.818;6.972;2023-12-04T15:31:43;11.82;;;7.65;;
15635;SDS011;7917;50.818;6.972;2023-12-04T15:34:11;10.05;;;6.88;;
15635;SDS011;7917;50.818;6.972;2023-12-04T15:36:39;9.45;;;6.28;;
15635;SDS011;7917;50.818;6.972;2023-12-04T15:39:07;12.85;;;8.68;;
15635;SDS011;7917;50.818;6.972;2023-12-04T15:41:34;12.48;;;8.25;;
15635;SDS011;7917;50.818;6.972;2023-12-04T15:44:02;13.75;;;9.38;;
15635;SDS011;7917;50.818;6.972;2023-12-04T15:46:33;12.85;;;8.73;;
15635;SDS011;7917;50.818;6.972;2023-12-04T15:48:59;11.68;;;8.07;;